Akiak, Alaska
Current Conditions -  °F | °C
As of 6:20 AM on Friday 31 Oct 2014 (Local Time) from PFKW Reporting Station
Light Snow Light Snow  
Wind Chill: -4°   Ceiling: Unl
Heat Index: 12°   Visibility: 9mi
Dew Point: 10°   Wind: 16mph
Humidity: 92%   Direction: 50°NE
Pressure: 29.27"   Gusts: 22mph
Location:  60.92°N, 161.23°W
Report Text: PFKW 311420Z AUTO 05014G19KT 9SM -SN FEW005 M11/M12 A2927 RMK AO2 P0000 FZRANO
Loading
Personal Weather Stations






























Interactive Weather Map
Tropical Storm Tracking
New forecast layout! Learn more

10-Day Weather Forecast

Advertisements
Track Severe Weather on mobile